createdAt,value
2023-02-24T00:01:59.697Z,99792.67
2023-02-24T00:04:29.433Z,99787.52
2023-02-24T00:06:56.125Z,99783.25
2023-02-24T00:09:28.560Z,99782.19
2023-02-24T00:12:00.560Z,99780.36
2023-02-24T00:14:30.441Z,99778.48
2023-02-24T00:17:00.807Z,99768.35
2023-02-24T00:19:33.486Z,99764.81
2023-02-24T00:22:02.061Z,99759.60
2023-02-24T00:24:28.789Z,99753.15
2023-02-24T00:26:59.079Z,99749.17
2023-02-24T00:29:28.306Z,99747.80
2023-02-24T00:32:00.146Z,99741.39
2023-02-24T00:34:29.737Z,99738.97
2023-02-24T00:36:57.710Z,99739.91
2023-02-24T00:39:33.081Z,99736.79
2023-02-24T00:42:04.445Z,99734.20
2023-02-24T00:44:44.322Z,99724.94
2023-02-24T00:47:11.990Z,99720.42
2023-02-24T00:49:41.628Z,99712.42
2023-02-24T00:52:17.766Z,99706.48
2023-02-24T00:54:47.248Z,99704.95
2023-02-24T00:57:18.060Z,99691.17
2023-02-24T00:59:47.047Z,99703.13
2023-02-24T01:02:14.945Z,99701.81
2023-02-24T01:04:43.811Z,99693.66
2023-02-24T01:07:11.417Z,99688.38
2023-02-24T01:09:40.871Z,99687.01
2023-02-24T01:12:28.928Z,99680.61
2023-02-24T01:14:58.293Z,99674.94
2023-02-24T01:17:25.039Z,99676.39
2023-02-24T01:19:51.850Z,99666.04
2023-02-24T01:22:20.306Z,99665.83
2023-02-24T01:24:47.906Z,99660.05
2023-02-24T01:27:19.300Z,99659.24
2023-02-24T01:29:47.135Z,99654.66
2023-02-24T01:32:20.119Z,99649.75
2023-02-24T01:34:50.818Z,99631.82
2023-02-24T01:37:18.653Z,99648.15
2023-02-24T01:39:45.986Z,99642.52
2023-02-24T01:42:18.910Z,99645.27
2023-02-24T01:44:47.069Z,99640.77
2023-02-24T01:47:17.834Z,99634.98
2023-02-24T01:49:47.147Z,99636.27
2023-02-24T01:52:24.257Z,99630.97
2023-02-24T01:55:08.711Z,99632.27
2023-02-24T01:57:38.379Z,99629.05
2023-02-24T02:00:18.830Z,99623.19
2023-02-24T02:02:52.034Z,99622.10
2023-02-24T02:05:18.880Z,99617.63
2023-02-24T02:07:45.853Z,99612.16
2023-02-24T02:10:13.464Z,99608.08
2023-02-24T02:12:45.488Z,99602.61
2023-02-24T02:15:19.784Z,99599.91
2023-02-24T02:18:27.458Z,99597.20
2023-02-24T02:21:06.520Z,99600.80
2023-02-24T02:23:50.590Z,99596.99
2023-02-24T02:26:20.709Z,99600.52
2023-02-24T02:28:54.583Z,99594.12
2023-02-24T02:31:46.118Z,99583.77
2023-02-24T02:34:19.625Z,99574.16
2023-02-24T02:37:11.751Z,99590.13
2023-02-24T02:40:07.614Z,99588.27
2023-02-24T02:42:50.849Z,99583.08
2023-02-24T02:45:24.207Z,99581.73
2023-02-24T02:48:23.964Z,99580.24
2023-02-24T02:51:03.646Z,99578.42
2023-02-24T02:53:39.335Z,99577.03
2023-02-24T02:56:31.527Z,99575.41
2023-02-24T02:59:00.421Z,99567.13
2023-02-24T03:01:33.573Z,99557.76
2023-02-24T03:04:05.084Z,99560.13
2023-02-24T03:06:34.630Z,99561.48
2023-02-24T03:09:11.979Z,99559.70
2023-02-24T03:11:41.009Z,99557.35
2023-02-24T03:14:12.310Z,99555.75
2023-02-24T03:16:43.220Z,99556.92
2023-02-24T03:19:13.182Z,99556.71
2023-02-24T03:21:57.685Z,99553.50
2023-02-24T03:24:24.484Z,99555.48
2023-02-24T03:27:11.295Z,99543.63
2023-02-24T03:29:48.234Z,99554.33
2023-02-24T03:32:32.737Z,99548.56
2023-02-24T03:35:13.162Z,99545.11
2023-02-24T03:37:41.197Z,99544.20
2023-02-24T03:40:13.935Z,99537.21
2023-02-24T03:42:45.725Z,99534.75
2023-02-24T03:45:13.194Z,99531.75
2023-02-24T03:47:41.053Z,99531.15
2023-02-24T03:50:15.704Z,99528.39
2023-02-24T03:52:51.607Z,99525.70
2023-02-24T03:55:45.725Z,99520.41
2023-02-24T03:58:27.717Z,99521.93
2023-02-24T04:00:55.311Z,99518.08
2023-02-24T04:03:27.901Z,99515.75
2023-02-24T04:06:08.390Z,99508.00
2023-02-24T04:09:00.860Z,99506.22
2023-02-24T04:11:43.609Z,99499.50
2023-02-24T04:14:34.276Z,99496.09
2023-02-24T04:17:12.894Z,99492.16
2023-02-24T04:19:43.921Z,99491.79
2023-02-24T04:22:15.032Z,99483.89
2023-02-24T04:24:44.215Z,99475.06
2023-02-24T04:27:12.761Z,99471.76
2023-02-24T04:29:51.473Z,99473.67
2023-02-24T04:32:24.680Z,99468.04
2023-02-24T04:34:51.969Z,99468.33
2023-02-24T04:37:22.499Z,99460.42
2023-02-24T04:39:50.320Z,99457.59
2023-02-24T04:42:23.199Z,99452.83
2023-02-24T04:44:50.068Z,99447.71
2023-02-24T04:47:16.721Z,99449.08
2023-02-24T04:49:43.962Z,99448.35
2023-02-24T04:52:11.514Z,99451.13
2023-02-24T04:54:38.288Z,99447.17
2023-02-24T04:57:06.733Z,99444.73
2023-02-24T04:59:33.380Z,99444.87
2023-02-24T05:02:01.240Z,99440.26
2023-02-24T05:04:29.525Z,99439.64
2023-02-24T05:06:57.055Z,99437.98
2023-02-24T05:09:23.966Z,99436.79
2023-02-24T05:11:51.845Z,99418.74
2023-02-24T05:14:24.498Z,99432.19
2023-02-24T05:16:51.428Z,99427.95
2023-02-24T05:19:38.559Z,99423.80
2023-02-24T05:22:06.519Z,99421.95
2023-02-24T05:24:34.130Z,99422.17
2023-02-24T05:27:03.180Z,99417.33
2023-02-24T05:29:34.310Z,99418.76
2023-02-24T05:32:03.469Z,99419.33
2023-02-24T05:34:31.949Z,99416.70
2023-02-24T05:37:01.064Z,99416.14
2023-02-24T05:39:27.863Z,99415.13
2023-02-24T05:41:56.653Z,99417.88
2023-02-24T05:44:25.459Z,99409.27
2023-02-24T05:46:58.043Z,99415.93
2023-02-24T05:49:32.458Z,99420.79
2023-02-24T05:52:06.777Z,99424.91
2023-02-24T05:54:40.049Z,99424.66
2023-02-24T05:57:13.255Z,99422.52
2023-02-24T05:59:41.122Z,99414.95
2023-02-24T06:02:13.229Z,99417.55
2023-02-24T06:04:50.474Z,99414.45
2023-02-24T06:07:18.553Z,99411.39
2023-02-24T06:09:49.327Z,99406.73
2023-02-24T06:12:17.631Z,99406.85
2023-02-24T06:14:44.608Z,99404.88
2023-02-24T06:17:11.457Z,99405.49
2023-02-24T06:19:39.233Z,99401.80
2023-02-24T06:22:10.372Z,99400.30
2023-02-24T06:24:37.130Z,99398.14
2023-02-24T06:27:10.023Z,99394.92
2023-02-24T06:29:37.473Z,99394.80
2023-02-24T06:32:10.468Z,99393.17
2023-02-24T06:34:38.606Z,99389.95
2023-02-24T06:37:09.126Z,99390.01
2023-02-24T06:39:36.913Z,99392.88
2023-02-24T06:42:04.901Z,99388.08
2023-02-24T06:44:33.355Z,99384.98
2023-02-24T06:47:00.572Z,99381.58
2023-02-24T06:49:28.026Z,99381.31
2023-02-24T06:51:57.040Z,99353.12
2023-02-24T06:54:27.789Z,99382.17
2023-02-24T06:56:55.083Z,99379.82
2023-02-24T06:59:22.018Z,99377.89
2023-02-24T07:01:48.953Z,99381.23
2023-02-24T07:04:16.564Z,99379.20
2023-02-24T07:06:48.744Z,99380.13
2023-02-24T07:09:18.227Z,99381.04
2023-02-24T07:11:51.334Z,99379.35
2023-02-24T07:14:23.861Z,99371.52
2023-02-24T07:16:54.068Z,99370.83
2023-02-24T07:19:28.630Z,99355.77
2023-02-24T07:21:59.516Z,99367.98
2023-02-24T07:24:39.441Z,99368.02
2023-02-24T07:27:21.384Z,99369.58
2023-02-24T07:29:53.008Z,99357.05
2023-02-24T07:32:25.017Z,99360.53
2023-02-24T07:34:52.571Z,99360.33
2023-02-24T07:37:20.012Z,99356.42
2023-02-24T07:39:49.048Z,99355.66
2023-02-24T07:42:15.744Z,99355.26
2023-02-24T07:44:45.833Z,99348.94
2023-02-24T07:47:15.137Z,99349.41
2023-02-24T07:49:41.884Z,99346.20
2023-02-24T07:52:10.894Z,99346.81
2023-02-24T07:54:38.657Z,99344.74
2023-02-24T07:57:05.867Z,99338.71
2023-02-24T07:59:34.576Z,99339.48
2023-02-24T08:02:04.015Z,99336.95
2023-02-24T08:04:32.463Z,99336.16
2023-02-24T08:07:02.176Z,99333.61
2023-02-24T08:10:06.742Z,99332.24
2023-02-24T08:12:34.610Z,99319.56
2023-02-24T08:15:08.366Z,99318.94
2023-02-24T08:17:35.117Z,99317.77
2023-02-24T08:20:14.112Z,99315.89
2023-02-24T08:22:46.327Z,99312.77
2023-02-24T08:25:17.722Z,99310.02
2023-02-24T08:28:06.373Z,99306.19
2023-02-24T08:30:39.774Z,99304.23
2023-02-24T08:33:09.353Z,99303.80
2023-02-24T08:35:38.408Z,99300.14
2023-02-24T08:38:27.114Z,99298.24
2023-02-24T08:40:55.260Z,99300.86
2023-02-24T08:43:35.244Z,99297.02
2023-02-24T08:46:32.157Z,99295.52
2023-02-24T08:49:02.178Z,99292.19
2023-02-24T08:51:34.322Z,99285.22
2023-02-24T08:54:10.543Z,99280.96
2023-02-24T08:56:42.673Z,99281.40
2023-02-24T08:59:28.543Z,99278.86
2023-02-24T09:02:17.000Z,99275.60
2023-02-24T09:04:59.204Z,99273.05
2023-02-24T09:07:40.074Z,99269.75
2023-02-24T09:10:18.516Z,99248.66
2023-02-24T09:12:46.150Z,99267.72
2023-02-24T09:15:16.183Z,99249.36
2023-02-24T09:17:44.582Z,99259.89
2023-02-24T09:20:35.695Z,99258.45
2023-02-24T09:23:03.796Z,99253.48
2023-02-24T09:25:40.969Z,99250.78
2023-02-24T09:28:18.194Z,99250.20
2023-02-24T09:30:54.861Z,99249.66
2023-02-24T09:33:28.716Z,99251.19
2023-02-24T09:36:08.946Z,99246.51
2023-02-24T09:39:01.836Z,99247.17
2023-02-24T09:42:17.312Z,99239.25
2023-02-24T09:44:48.607Z,99239.80
2023-02-24T09:47:30.424Z,99223.40
2023-02-24T09:50:07.910Z,99239.98
2023-02-24T09:52:40.530Z,99236.28
2023-02-24T09:55:24.509Z,99235.16
2023-02-24T09:58:12.869Z,99237.38
2023-02-24T10:00:44.573Z,99233.31
2023-02-24T10:03:40.824Z,99228.01
2023-02-24T10:06:26.353Z,99226.05
2023-02-24T10:09:13.774Z,99229.20
2023-02-24T10:12:07.265Z,99231.70
2023-02-24T10:14:44.391Z,99232.06
2023-02-24T10:17:23.950Z,99228.85
2023-02-24T10:20:13.514Z,99219.71
2023-02-24T10:22:53.223Z,99215.44
2023-02-24T10:25:41.167Z,99214.20
2023-02-24T10:28:21.694Z,99210.48
2023-02-24T10:31:09.642Z,99214.21
2023-02-24T10:33:44.835Z,99216.80
2023-02-24T10:36:17.238Z,99216.70
2023-02-24T10:38:45.069Z,99212.88
2023-02-24T10:41:16.556Z,99208.35
2023-02-24T10:43:55.470Z,99204.65
2023-02-24T10:46:42.165Z,99201.06
2023-02-24T10:49:15.686Z,99199.23
2023-02-24T10:51:50.695Z,99195.66
2023-02-24T10:54:44.064Z,99190.15
2023-02-24T10:57:36.023Z,99183.79
2023-02-24T11:00:18.258Z,99181.79
2023-02-24T11:03:06.590Z,99181.93
2023-02-24T11:05:45.400Z,99174.52
2023-02-24T11:08:36.164Z,99167.95
2023-02-24T11:11:26.105Z,99166.48
2023-02-24T11:14:12.599Z,99159.60
2023-02-24T11:17:10.309Z,99154.88
2023-02-24T11:19:45.784Z,99149.04
2023-02-24T11:22:19.880Z,99143.50
2023-02-24T11:24:49.673Z,99139.67
2023-02-24T11:27:23.075Z,99135.59
2023-02-24T11:29:52.869Z,99127.48
2023-02-24T11:32:34.799Z,99124.23
2023-02-24T11:35:22.048Z,99114.17
2023-02-24T11:38:05.443Z,99112.98
2023-02-24T11:40:39.510Z,99111.48
2023-02-24T11:43:13.869Z,99112.37
2023-02-24T11:45:44.591Z,99109.18
2023-02-24T11:48:38.394Z,99106.27
2023-02-24T11:51:17.842Z,99105.29
2023-02-24T11:53:53.204Z,99102.45
2023-02-24T11:56:38.137Z,99095.46
2023-02-24T11:59:19.794Z,99095.64
2023-02-24T12:01:53.026Z,99094.73
2023-02-24T12:04:25.756Z,99089.11
2023-02-24T12:07:14.030Z,99092.07
2023-02-24T12:10:16.013Z,99087.59
2023-02-24T12:13:03.865Z,99084.16
2023-02-24T12:15:52.629Z,99081.04
2023-02-24T12:18:27.234Z,99079.05
2023-02-24T12:20:59.955Z,99077.17
2023-02-24T12:23:39.522Z,99060.60
2023-02-24T12:26:09.372Z,99072.05
2023-02-24T12:28:56.344Z,99068.48
2023-02-24T12:31:38.508Z,99063.45
2023-02-24T12:34:08.348Z,99055.89
2023-02-24T12:37:07.017Z,99052.52
2023-02-24T12:39:53.523Z,99051.85
2023-02-24T12:42:31.024Z,99048.50
2023-02-24T12:45:16.457Z,99044.64
2023-02-24T12:47:58.526Z,99025.96
2023-02-24T12:50:47.088Z,99037.89
2023-02-24T12:53:26.085Z,99038.03
2023-02-24T12:56:05.774Z,99031.00
2023-02-24T12:58:36.632Z,99027.95
2023-02-24T13:01:34.491Z,99018.48
2023-02-24T13:04:23.131Z,99013.13
2023-02-24T13:07:30.811Z,99006.64
2023-02-24T13:10:12.089Z,99002.33
2023-02-24T13:12:51.631Z,98992.92
2023-02-24T13:15:24.971Z,98992.90
2023-02-24T13:17:55.741Z,98987.39
2023-02-24T13:20:33.605Z,98984.54
2023-02-24T13:23:03.059Z,98989.03
2023-02-24T13:25:39.226Z,98986.37
2023-02-24T13:28:26.975Z,98983.95
2023-02-24T13:31:12.059Z,98967.15
2023-02-24T13:33:44.181Z,98973.15
2023-02-24T13:36:15.394Z,98965.96
2023-02-24T13:38:47.389Z,98963.38
2023-02-24T13:41:26.525Z,98963.53
2023-02-24T13:44:01.414Z,98955.89
2023-02-24T13:46:49.009Z,98946.32
2023-02-24T13:49:22.446Z,98949.09
2023-02-24T13:51:59.222Z,98944.20
2023-02-24T13:54:25.852Z,98939.13
2023-02-24T13:56:55.957Z,98939.31
2023-02-24T13:59:52.616Z,98942.41
2023-02-24T14:02:22.426Z,98933.52
2023-02-24T14:04:55.099Z,98937.25
2023-02-24T14:07:24.707Z,98943.83
2023-02-24T14:09:58.810Z,98933.97
2023-02-24T14:12:33.666Z,98937.58
2023-02-24T14:15:02.936Z,98932.17
2023-02-24T14:17:33.108Z,98926.29
2023-02-24T14:20:09.029Z,98917.84
2023-02-24T14:22:52.548Z,98913.46
2023-02-24T14:25:21.606Z,98913.38
2023-02-24T14:27:52.101Z,98914.02
2023-02-24T14:30:35.087Z,98898.67
2023-02-24T14:33:04.214Z,98907.98
2023-02-24T14:35:46.616Z,98902.63
2023-02-24T14:38:39.670Z,98898.11
2023-02-24T14:41:19.318Z,98885.79
2023-02-24T14:43:46.299Z,98893.92
2023-02-24T14:46:13.122Z,98892.95
2023-02-24T14:48:39.981Z,98898.77
2023-02-24T14:51:11.903Z,98901.52
2023-02-24T14:53:49.014Z,98907.54
2023-02-24T14:56:17.851Z,98912.71
2023-02-24T14:58:53.045Z,98902.31
2023-02-24T15:01:49.317Z,98896.40
2023-02-24T15:04:32.238Z,98891.17
2023-02-24T15:07:02.823Z,98891.96
2023-02-24T15:09:36.599Z,98888.56
2023-02-24T15:12:20.253Z,98884.73
2023-02-24T15:15:01.318Z,98886.55
2023-02-24T15:17:28.895Z,98878.75
2023-02-24T15:19:55.649Z,98881.09
2023-02-24T15:22:28.809Z,98879.92
2023-02-24T15:25:12.519Z,98875.06
2023-02-24T15:27:59.940Z,98845.16
2023-02-24T15:30:34.094Z,98864.59
2023-02-24T15:33:07.703Z,98859.73
2023-02-24T15:35:38.460Z,98861.45
2023-02-24T15:38:05.454Z,98862.12
2023-02-24T15:40:33.000Z,98862.92
2023-02-24T15:43:16.050Z,98865.45
2023-02-24T15:46:06.723Z,98867.52
2023-02-24T15:49:30.822Z,98854.48
2023-02-24T15:53:20.834Z,98864.95
2023-02-24T15:56:19.935Z,98864.30
2023-02-24T15:59:26.499Z,98867.11
2023-02-24T16:02:13.661Z,98873.13
2023-02-24T16:11:06.542Z,98877.63
2023-02-24T16:17:39.615Z,98874.22
2023-02-24T16:25:02.554Z,98868.92
2023-02-24T16:28:05.608Z,98827.77
2023-02-24T16:30:48.974Z,98871.25
2023-02-24T16:38:12.549Z,98796.95
2023-02-24T16:41:41.799Z,98866.34
2023-02-24T16:50:15.061Z,98858.37
2023-02-24T16:57:11.748Z,98866.15
2023-02-24T17:03:06.874Z,98862.80
2023-02-24T17:06:13.707Z,98845.27
2023-02-24T17:08:56.000Z,98863.29
2023-02-24T17:12:02.033Z,98845.25
2023-02-24T17:14:53.981Z,98801.41
2023-02-24T17:17:51.112Z,98854.09
2023-02-24T17:20:44.464Z,98854.65
2023-02-24T17:23:45.694Z,98852.35
2023-02-24T17:26:39.969Z,98834.48
2023-02-24T17:29:20.599Z,98845.98
2023-02-24T17:32:27.754Z,98849.58
2023-02-24T17:39:06.595Z,98834.14
2023-02-24T17:43:05.743Z,98825.52
2023-02-24T17:45:57.156Z,98835.77
2023-02-24T17:48:24.109Z,98831.84
2023-02-24T17:50:51.440Z,98826.95
2023-02-24T17:53:18.339Z,98825.16
2023-02-24T17:56:01.381Z,98817.06
2023-02-24T17:58:29.801Z,98814.19
2023-02-24T18:00:56.967Z,98813.60
2023-02-24T18:03:24.306Z,98812.27
2023-02-24T18:06:02.991Z,98811.33
2023-02-24T18:08:32.360Z,98811.30
2023-02-24T18:10:59.405Z,98809.38
2023-02-24T18:13:28.592Z,98808.49
2023-02-24T18:15:56.210Z,98809.19
2023-02-24T18:18:25.069Z,98803.48
2023-02-24T18:20:52.121Z,98803.77
2023-02-24T18:23:19.415Z,98799.84
2023-02-24T18:25:46.266Z,98788.27
2023-02-24T18:28:13.106Z,98761.48
2023-02-24T18:30:40.005Z,98775.66
2023-02-24T18:33:06.979Z,98768.84
2023-02-24T18:35:34.261Z,98766.09
2023-02-24T18:38:02.238Z,98771.47
2023-02-24T18:40:29.391Z,98776.45
2023-02-24T18:42:56.463Z,98764.27
2023-02-24T18:45:23.948Z,98771.90
2023-02-24T18:47:51.554Z,98764.94
2023-02-24T18:50:20.193Z,98748.97
2023-02-24T18:52:47.902Z,98740.00
2023-02-24T18:55:14.950Z,98754.92
2023-02-24T18:57:42.614Z,98753.05
2023-02-24T19:00:12.623Z,98750.18
2023-02-24T19:02:40.859Z,98745.88
2023-02-24T19:05:08.286Z,98745.17
2023-02-24T19:07:35.169Z,98740.83
2023-02-24T19:10:02.191Z,98735.13
2023-02-24T19:12:29.120Z,98728.50
2023-02-24T19:14:55.978Z,98729.23
2023-02-24T19:17:22.826Z,98724.45
2023-02-24T19:19:50.187Z,98716.36
2023-02-24T19:22:16.983Z,98715.04
2023-02-24T19:24:44.514Z,98715.73
2023-02-24T19:27:11.261Z,98706.66
2023-02-24T19:29:37.971Z,98704.77
2023-02-24T19:32:04.995Z,98692.08
2023-02-24T19:34:31.874Z,98690.42
2023-02-24T19:36:58.624Z,98691.84
2023-02-24T19:39:25.503Z,98689.11
2023-02-24T19:41:52.920Z,98695.77
2023-02-24T19:44:19.859Z,98688.00
2023-02-24T19:46:47.017Z,98684.91
2023-02-24T19:49:13.668Z,98683.64
2023-02-24T19:51:40.404Z,98687.23
2023-02-24T19:54:07.217Z,98688.20
2023-02-24T19:56:36.206Z,98685.37
2023-02-24T19:59:10.818Z,98688.23
2023-02-24T20:01:37.838Z,98684.14
2023-02-24T20:04:05.245Z,98685.33
2023-02-24T20:06:40.662Z,98682.71
2023-02-24T20:09:10.515Z,98687.98
2023-02-24T20:11:38.606Z,98687.81
2023-02-24T20:14:07.936Z,98669.77
2023-02-24T20:16:36.910Z,98682.14
2023-02-24T20:19:05.467Z,98680.32
2023-02-24T20:21:33.408Z,98682.05
2023-02-24T20:24:05.335Z,98675.90
2023-02-24T20:26:32.943Z,98671.24
2023-02-24T20:29:00.434Z,98674.13
2023-02-24T20:31:27.843Z,98667.83
2023-02-24T20:33:55.853Z,98662.85
2023-02-24T20:36:28.283Z,98661.28
2023-02-24T20:38:57.174Z,98660.33
2023-02-24T20:41:26.073Z,98651.90
2023-02-24T20:43:54.674Z,98652.27
2023-02-24T20:46:30.255Z,98645.98
2023-02-24T20:49:03.498Z,98634.90
2023-02-24T20:51:32.090Z,98635.16
2023-02-24T20:54:08.490Z,98633.70
2023-02-24T20:56:37.419Z,98634.55
2023-02-24T20:59:12.405Z,98632.70
2023-02-24T21:01:41.388Z,98623.10
2023-02-24T21:04:08.275Z,98619.77
2023-02-24T21:06:36.576Z,98620.10
2023-02-24T21:09:03.868Z,98612.78
2023-02-24T21:11:32.191Z,98606.27
2023-02-24T21:13:59.522Z,98604.20
2023-02-24T21:16:27.370Z,98612.21
2023-02-24T21:18:55.711Z,98608.39
2023-02-24T21:21:22.667Z,98609.30
2023-02-24T21:23:49.980Z,98602.16
2023-02-24T21:26:17.238Z,98595.20
2023-02-24T21:28:44.380Z,98588.29
2023-02-24T21:31:14.330Z,98586.54
2023-02-24T21:33:53.762Z,98585.48
2023-02-24T21:36:39.929Z,98571.63
2023-02-24T21:39:07.092Z,98579.27
2023-02-24T21:41:35.880Z,98578.27
2023-02-24T21:44:03.298Z,98570.83
2023-02-24T21:46:30.601Z,98565.38
2023-02-24T21:48:58.490Z,98561.48
2023-02-24T21:51:27.234Z,98553.33
2023-02-24T21:53:55.303Z,98544.27
2023-02-24T21:56:25.772Z,98542.77
2023-02-24T21:58:54.120Z,98546.77
2023-02-24T22:01:25.162Z,98539.13
2023-02-24T22:03:57.299Z,98538.80
2023-02-24T22:06:31.343Z,98532.33
2023-02-24T22:08:59.336Z,98527.73
2023-02-24T22:11:26.793Z,98510.15
2023-02-24T22:13:53.657Z,98510.75
2023-02-24T22:16:22.890Z,98512.79
2023-02-24T22:18:51.320Z,98513.61
2023-02-24T22:21:21.081Z,98510.77
2023-02-24T22:23:51.823Z,98504.61
2023-02-24T22:26:22.402Z,98500.33
2023-02-24T22:28:49.332Z,98499.02
2023-02-24T22:31:18.682Z,98494.08
2023-02-24T22:33:46.266Z,98486.75
2023-02-24T22:36:16.621Z,98480.59
2023-02-24T22:38:47.646Z,98479.92
2023-02-24T22:41:17.328Z,98488.45
2023-02-24T22:43:44.574Z,98490.23
2023-02-24T22:46:14.188Z,98484.45
2023-02-24T22:48:42.914Z,98479.58
2023-02-24T22:51:11.728Z,98472.64
2023-02-24T22:53:41.636Z,98457.79
2023-02-24T22:56:12.738Z,98464.86
2023-02-24T22:58:39.579Z,98464.78
2023-02-24T23:01:11.430Z,98462.79
2023-02-24T23:03:39.570Z,98446.90
2023-02-24T23:06:15.896Z,98457.34
2023-02-24T23:08:45.860Z,98454.33
2023-02-24T23:11:14.438Z,98423.95
2023-02-24T23:13:44.184Z,98447.23
2023-02-24T23:16:14.415Z,98452.91
2023-02-24T23:18:47.974Z,98446.91
2023-02-24T23:21:15.529Z,98444.63
2023-02-24T23:23:42.604Z,98430.46
2023-02-24T23:26:10.854Z,98445.86
2023-02-24T23:28:38.692Z,98438.71
2023-02-24T23:31:06.663Z,98423.02
2023-02-24T23:33:34.055Z,98408.19
2023-02-24T23:36:06.226Z,98396.32
2023-02-24T23:38:33.735Z,98396.90
2023-02-24T23:41:00.761Z,98388.65
2023-02-24T23:43:27.521Z,98378.20
2023-02-24T23:45:55.089Z,98372.67
2023-02-24T23:48:22.029Z,98372.36
2023-02-24T23:50:50.644Z,98374.02
2023-02-24T23:53:17.630Z,98367.63
2023-02-24T23:55:44.350Z,98365.40
2023-02-24T23:58:11.294Z,98360.20
